Terminal Aerodrome Forecast
Issued by NWS Binghamton, NY

Home | Current Version | Previous Version | Text Only | Print | Product List | Glossary On
Versions: 1 2 3 4 5 6 7 8 9 10 11 12 13 14 15 16 17 18
000
FTUS41 KBGM 261723
TAFSYR
TAF
KSYR 261723Z 2618/2718 VRB05KT P6SM SCT035 BKN060
     FM270000 10005KT P6SM SCT035
     FM271200 15010G20KT P6SM BKN045=

USA.gov is the U.S. government's official web portal to all federal, state and local government web resources and services.